Weather at Dane County Regional Truax Field

Public forecast

Using degrees Fahrenheit for public forecast. Weather courtesy of forecast.io.

Current aviation weather report (METAR) for Dane County Regional Truax Field

Retrieved 2021/05/07 06:53 UTC (1 hour ago):

KMSN 070653Z AUTO 00000KT 10SM OVC095 08/02 A2998 RMK AO2 SLP153 T00830022

Aviation forecast (TAF) for Dane County Regional Truax Field

Retrieved 2021/05/07 06:22 UTC (2 hours ago):

TAF KMSN 070520Z 0706/0806 25004KT P6SM SKC FM070700 VRB04KT P6SM BKN070 FM071200 31007KT P6SM SCT100 FM071400 32011G19KT P6SM FEW120 FM072200 34012G18KT P6SM BKN050 FM080100 35006KT P6SM FEW250